»·PEaware :: SWA401 KABQ-KDEN

SWA401 :: KABQ-KDEN

FLIGHT INFORMATION

Flight Status: Arrived
Operator:
Southwest Airlines
More flights by this operator :: More flights under this callsign
Pilot: Alfredo R. (12181)
Aircraft: BOEING 737-700
(B737)
More flights by this aircraft type
Origin: KABQ Albuquerque Intl Sunport
United States
Destination: KDEN Denver Intl
United States
More flights between these airports :: More routes between these airports
Route: +ATOMK3 ATOMK GNDLA TBARR1
File this flight plan on PilotEdge
Remarks:
Altitude:
(Current/Filed)
310ft
Speed:
(Current/Filed)
425kts
Departed: 15-Jun-20 01:40 PM
Arrived: 15-Jun-20 02:39 PM
Distance/Time
Traveled:
303nm/0:59
Distance/Time
To Go:
Arrived

Flight Plot

Page will automatically refresh every two minutes.

Flight plan parsing failed; only flown route is shown


Map Options




Map Legend


Flown Route
Filed Route
Departure Airport
Arrival Airport
Navaid (VOR, NDB)
Fix

Horizontal Profiles

Position Reports

Time Latitude Longitude Heading Altitude Ground
Speed
15-Jun-20 12:44 35.047010 -106.614013 310 5323ft 0kts
15-Jun-20 12:45 35.047010 -106.614013 310 5323ft 0kts
15-Jun-20 12:46 35.047010 -106.614013 310 5323ft 0kts
15-Jun-20 12:47 35.047010 -106.614013 310 5323ft 0kts
15-Jun-20 12:48 35.047010 -106.614013 310 5322ft 0kts
15-Jun-20 12:49 35.047010 -106.614013 310 5322ft 0kts
15-Jun-20 12:50 35.047010 -106.614013 310 5322ft 0kts
15-Jun-20 12:51 35.047010 -106.614013 310 5322ft 0kts
15-Jun-20 12:52 35.047010 -106.614013 310 5322ft 0kts
15-Jun-20 12:53 35.047010 -106.614013 310 5322ft 0kts
15-Jun-20 12:54 35.047010 -106.614013 310 5322ft 0kts
15-Jun-20 12:55 35.047010 -106.614013 310 5322ft 0kts
15-Jun-20 12:56 35.047010 -106.614013 310 5322ft 0kts
15-Jun-20 12:57 35.047010 -106.614013 310 5322ft 0kts
15-Jun-20 12:58 35.047010 -106.614013 310 5322ft 0kts
15-Jun-20 12:59 35.047010 -106.614013 310 5322ft 0kts
15-Jun-20 13:00 35.047010 -106.614013 310 5322ft 0kts
15-Jun-20 13:01 35.047010 -106.614013 310 5322ft 0kts
15-Jun-20 13:02 35.047010 -106.614013 310 5322ft 0kts
15-Jun-20 13:03 35.047010 -106.614013 310 5322ft 0kts
15-Jun-20 13:04 35.047010 -106.614013 310 5322ft 0kts
15-Jun-20 13:05 35.047010 -106.614013 310 5322ft 0kts
15-Jun-20 13:06 35.047010 -106.614013 310 5322ft 0kts
15-Jun-20 13:07 35.047010 -106.614013 310 5322ft 0kts
15-Jun-20 13:08 35.047010 -106.614013 310 5322ft 0kts
15-Jun-20 13:09 35.047010 -106.614013 310 5322ft 0kts
15-Jun-20 13:10 35.047010 -106.614013 310 5322ft 0kts
15-Jun-20 13:11 35.047010 -106.614013 310 5322ft 0kts
15-Jun-20 13:12 35.047010 -106.614013 310 5322ft 0kts
15-Jun-20 13:13 35.047010 -106.614013 310 5322ft 0kts
15-Jun-20 13:14 35.047010 -106.614013 310 5322ft 0kts
15-Jun-20 13:15 35.047010 -106.614012 310 5323ft 0kts
15-Jun-20 13:16 35.047010 -106.614012 310 5323ft 0kts
15-Jun-20 13:17 35.047010 -106.614012 310 5323ft 0kts
15-Jun-20 13:18 35.046897 -106.613836 306 5323ft 2kts
15-Jun-20 13:19 35.046736 -106.613196 227 5322ft 2kts
15-Jun-20 13:20 35.047168 -106.613088 182 5322ft 0kts
15-Jun-20 13:21 35.047168 -106.613088 182 5322ft 0kts
15-Jun-20 13:22 35.047168 -106.613088 182 5322ft 0kts
15-Jun-20 13:23 35.047168 -106.613088 182 5322ft 0kts
15-Jun-20 13:24 35.047168 -106.613088 182 5322ft 0kts
15-Jun-20 13:25 35.047143 -106.613089 182 5322ft 0kts
15-Jun-20 13:26 35.047141 -106.613089 182 5322ft 0kts
15-Jun-20 13:27 35.046932 -106.613101 182 5322ft 3kts
15-Jun-20 13:28 35.046225 -106.613135 175 5322ft 3kts
15-Jun-20 13:29 35.045801 -106.611744 90 5322ft 7kts
15-Jun-20 13:30 35.045770 -106.607798 90 5322ft 16kts
15-Jun-20 13:31 35.045734 -106.601246 90 5329ft 18kts
15-Jun-20 13:32 35.045841 -106.596088 90 5336ft 15kts
15-Jun-20 13:33 35.045794 -106.589638 89 5342ft 22kts
15-Jun-20 13:34 35.045757 -106.583067 90 5352ft 15kts
15-Jun-20 13:35 35.045721 -106.577821 90 5363ft 12kts
15-Jun-20 13:36 35.045073 -106.575719 175 5365ft 0kts
15-Jun-20 13:37 35.045069 -106.575719 175 5365ft 0kts
15-Jun-20 13:38 35.044432 -106.575858 210 5365ft 5kts
15-Jun-20 13:39 35.044120 -106.585239 270 5347ft 107kts
15-Jun-20 13:40 35.045889 -106.641362 275 6342ft 189kts
15-Jun-20 13:41 35.056738 -106.717183 278 7915ft 259kts
15-Jun-20 13:42 35.102225 -106.789464 342 10613ft 303kts
15-Jun-20 13:43 35.188656 -106.809608 349 13846ft 318kts
15-Jun-20 13:44 35.286021 -106.830763 348 16242ft 363kts
15-Jun-20 13:45 35.390918 -106.843463 0 19271ft 380kts
15-Jun-20 13:46 35.499366 -106.838166 0 22071ft 391kts
15-Jun-20 13:47 35.611516 -106.832617 0 24515ft 403kts
15-Jun-20 13:48 35.727568 -106.826863 0 26606ft 418kts
15-Jun-20 13:49 35.848450 -106.820841 1 28564ft 431kts
15-Jun-20 13:50 35.970329 -106.814622 2 30338ft 442kts
15-Jun-20 13:51 36.095989 -106.808181 1 31322ft 462kts
15-Jun-20 13:52 36.225819 -106.801656 1 31318ft 462kts
15-Jun-20 13:53 36.354063 -106.795100 1 31317ft 458kts
15-Jun-20 13:54 36.481800 -106.788682 1 31318ft 459kts
15-Jun-20 13:55 36.609669 -106.782247 1 31350ft 458kts
15-Jun-20 13:56 36.737522 -106.775969 1 31357ft 458kts
15-Jun-20 13:57 36.863434 -106.748105 12 31688ft 456kts
15-Jun-20 13:58 36.986841 -106.713408 11 33206ft 451kts
15-Jun-20 13:59 37.109882 -106.678867 11 34256ft 454kts
15-Jun-20 14:01 37.232725 -106.644297 11 35259ft 451kts
15-Jun-20 14:02 37.354619 -106.609888 11 35667ft 442kts
15-Jun-20 14:03 37.473492 -106.576078 11 35671ft 438kts
15-Jun-20 14:04 37.592330 -106.542290 11 35638ft 439kts
15-Jun-20 14:05 37.711693 -106.508185 11 35372ft 438kts
15-Jun-20 14:06 37.829930 -106.474304 11 35338ft 428kts
15-Jun-20 14:07 37.945477 -106.441181 11 35343ft 425kts
15-Jun-20 14:08 38.061537 -106.407824 11 35304ft 424kts
15-Jun-20 14:09 38.177496 -106.374355 11 35085ft 431kts
15-Jun-20 14:10 38.293535 -106.340756 11 33252ft 417kts
15-Jun-20 14:11 38.409231 -106.307149 11 31456ft 431kts
15-Jun-20 14:12 38.527491 -106.272722 11 29652ft 443kts
15-Jun-20 14:13 38.641706 -106.221330 30 27851ft 433kts
15-Jun-20 14:14 38.730662 -106.117169 48 27401ft 439kts
15-Jun-20 14:15 38.809386 -105.996415 49 27257ft 442kts
15-Jun-20 14:16 38.887737 -105.875897 49 25777ft 430kts
15-Jun-20 14:17 38.964067 -105.757253 49 24290ft 425kts
15-Jun-20 14:18 39.032648 -105.650597 49 22938ft 408kts
15-Jun-20 14:18 39.090905 -105.559707 49 21896ft 405kts
15-Jun-20 14:20 39.168858 -105.437236 50 20457ft 394kts
15-Jun-20 14:21 39.235491 -105.331143 51 19187ft 386kts
15-Jun-20 14:21 39.294443 -105.244815 38 18098ft 385kts
15-Jun-20 14:23 39.393840 -105.151236 34 16567ft 376kts
15-Jun-20 14:23 39.461047 -105.088624 34 15450ft 337kts
15-Jun-20 14:24 39.536992 -105.018881 34 14148ft 332kts
15-Jun-20 14:25 39.611328 -104.950542 35 12852ft 323kts
15-Jun-20 14:26 39.682469 -104.884978 37 11818ft 300kts
15-Jun-20 14:27 39.748665 -104.843401 11 11300ft 303kts
15-Jun-20 14:28 39.803940 -104.840317 3 10618ft 284kts
15-Jun-20 14:29 39.884356 -104.839474 5 9521ft 254kts
15-Jun-20 14:30 39.969069 -104.841885 0 8354ft 237kts
15-Jun-20 14:31 40.036395 -104.846695 15 7988ft 233kts
15-Jun-20 14:32 40.060292 -104.783957 87 8015ft 206kts
15-Jun-20 14:33 40.039166 -104.720829 136 7991ft 185kts
15-Jun-20 14:34 39.995207 -104.693734 177 7484ft 188kts
15-Jun-20 14:35 39.944519 -104.695329 176 6717ft 185kts
15-Jun-20 14:36 39.899671 -104.695886 174 5487ft 155kts
15-Jun-20 14:37 39.871490 -104.696301 179 5291ft 65kts
15-Jun-20 14:38 39.860389 -104.695548 99 5268ft 0kts
15-Jun-20 14:39 39.860388 -104.695541 100 5268ft 0kts
15-Jun-20 14:40 39.860357 -104.693402 87 5276ft 11kts
15-Jun-20 14:41 39.860315 -104.688605 90 5304ft 11kts
15-Jun-20 14:42 39.860310 -104.684697 90 5326ft 12kts
15-Jun-20 14:43 39.856993 -104.683716 127 5333ft 13kts
15-Jun-20 14:44 39.854032 -104.681915 182 5336ft 20kts
15-Jun-20 14:45 39.852953 -104.678557 49 5359ft 1kts
15-Jun-20 14:46 39.853315 -104.678019 52 5364ft 0kts
15-Jun-20 14:47 39.853316 -104.678017 52 5364ft 0kts

Navigation Log

Ident Type
Flight plan parsing failed, navigation log unavailable